createdAt,value
2017-10-02T00:01:18.614Z,5.53
2017-10-02T00:03:46.179Z,5.60
2017-10-02T00:06:14.532Z,5.87
2017-10-02T00:08:42.127Z,5.80
2017-10-02T00:11:10.446Z,5.20
2017-10-02T00:13:38.034Z,5.60
2017-10-02T00:16:05.689Z,5.90
2017-10-02T00:18:33.274Z,5.27
2017-10-02T00:21:01.705Z,5.10
2017-10-02T00:23:29.280Z,6.40
2017-10-02T00:25:56.871Z,5.40
2017-10-02T00:28:24.441Z,5.50
2017-10-02T00:30:52.796Z,5.60
2017-10-02T00:33:20.355Z,6.40
2017-10-02T00:35:49.448Z,5.17
2017-10-02T00:38:17.787Z,6.57
2017-10-02T00:40:45.492Z,5.77
2017-10-02T00:43:13.894Z,5.40
2017-10-02T00:45:41.477Z,5.90
2017-10-02T00:48:09.077Z,5.70
2017-10-02T00:50:36.636Z,5.90
2017-10-02T00:53:05.777Z,5.40
2017-10-02T00:55:33.335Z,6.07
2017-10-02T00:58:00.899Z,6.67
2017-10-02T01:00:28.487Z,5.67
2017-10-02T01:02:56.067Z,6.03
2017-10-02T01:05:23.662Z,5.70
2017-10-02T01:07:51.219Z,6.40
2017-10-02T01:10:18.810Z,6.57
2017-10-02T01:12:46.379Z,8.47
2017-10-02T01:15:13.934Z,7.00
2017-10-02T01:17:41.525Z,7.80
2017-10-02T01:20:09.868Z,7.57
2017-10-02T01:22:37.455Z,7.73
2017-10-02T01:25:05.016Z,6.60
2017-10-02T01:27:33.391Z,7.00
2017-10-02T01:30:00.948Z,6.70
2017-10-02T01:32:28.548Z,6.60
2017-10-02T01:34:56.111Z,6.47
2017-10-02T01:37:23.675Z,6.20
2017-10-02T01:39:51.267Z,6.70
2017-10-02T01:42:18.855Z,6.47
2017-10-02T01:44:47.217Z,5.97
2017-10-02T01:47:15.577Z,5.70
2017-10-02T01:49:43.143Z,6.40
2017-10-02T01:52:10.839Z,6.40
2017-10-02T01:54:39.171Z,6.53
2017-10-02T01:57:06.726Z,6.10
2017-10-02T01:59:34.308Z,7.33
2017-10-02T02:02:01.873Z,6.27
2017-10-02T02:04:30.227Z,5.70
2017-10-02T02:06:57.793Z,6.43
2017-10-02T02:09:25.400Z,6.40
2017-10-02T02:11:52.947Z,6.23
2017-10-02T02:14:20.562Z,6.20
2017-10-02T02:16:48.130Z,6.47
2017-10-02T02:19:15.715Z,6.27
2017-10-02T02:21:44.055Z,6.63
2017-10-02T02:24:11.618Z,5.90
2017-10-02T02:26:39.319Z,6.40
2017-10-02T02:29:06.887Z,6.73
2017-10-02T02:31:34.476Z,6.33
2017-10-02T02:34:02.043Z,6.70
2017-10-02T02:36:29.734Z,6.27
2017-10-02T02:38:58.085Z,7.03
2017-10-02T02:41:25.663Z,6.13
2017-10-02T02:43:53.228Z,6.50
2017-10-02T02:46:21.580Z,6.00
2017-10-02T02:48:49.196Z,6.20
2017-10-02T02:51:16.757Z,6.80
2017-10-02T02:53:44.475Z,6.90
2017-10-02T02:56:12.039Z,6.80
2017-10-02T02:58:40.390Z,6.50
2017-10-02T03:01:07.988Z,6.17
2017-10-02T03:03:36.316Z,5.80
2017-10-02T03:06:03.908Z,5.90
2017-10-02T03:08:32.235Z,5.80
2017-10-02T03:10:59.846Z,6.07
2017-10-02T03:13:28.171Z,5.23
2017-10-02T03:15:55.728Z,5.40
2017-10-02T03:18:23.311Z,5.90
2017-10-02T03:20:50.867Z,5.87
2017-10-02T03:23:18.548Z,5.33
2017-10-02T03:25:46.119Z,5.83
2017-10-02T03:28:13.727Z,5.50
2017-10-02T03:30:41.308Z,5.40
2017-10-02T03:33:08.910Z,4.97
2017-10-02T03:35:36.471Z,5.90
2017-10-02T03:38:04.047Z,5.50
2017-10-02T03:40:31.635Z,5.60
2017-10-02T03:42:59.233Z,6.33
2017-10-02T03:45:27.586Z,5.23
2017-10-02T03:47:55.142Z,5.00
2017-10-02T03:50:22.731Z,4.70
2017-10-02T03:52:51.062Z,5.17
2017-10-02T03:55:18.667Z,5.67
2017-10-02T03:57:47.023Z,5.97
2017-10-02T04:00:14.639Z,5.27
2017-10-02T04:02:42.249Z,5.30
2017-10-02T04:05:09.818Z,4.87
2017-10-02T04:07:38.332Z,5.33
2017-10-02T04:10:05.966Z,5.43
2017-10-02T04:12:34.322Z,4.83
2017-10-02T04:15:01.892Z,4.60
2017-10-02T04:17:30.248Z,5.27
2017-10-02T04:19:57.818Z,4.33
2017-10-02T04:22:25.387Z,4.43
2017-10-02T04:24:53.754Z,4.50
2017-10-02T04:27:22.100Z,4.80
2017-10-02T04:29:49.679Z,4.80
2017-10-02T04:32:17.249Z,6.07
2017-10-02T04:34:45.607Z,5.07
2017-10-02T04:37:13.166Z,5.17
2017-10-02T04:39:40.867Z,5.40
2017-10-02T04:42:08.419Z,6.37
2017-10-02T04:44:36.780Z,6.40
2017-10-02T04:47:04.350Z,7.53
2017-10-02T04:49:32.675Z,6.10
2017-10-02T04:52:00.267Z,6.93
2017-10-02T04:54:28.606Z,6.50
2017-10-02T04:56:56.193Z,7.17
2017-10-02T04:59:23.759Z,6.00
2017-10-02T05:01:51.357Z,5.80
2017-10-02T05:04:18.924Z,6.17
2017-10-02T05:06:46.486Z,5.80
2017-10-02T05:09:14.075Z,6.40
2017-10-02T05:11:41.635Z,6.70
2017-10-02T05:14:09.231Z,9.30
2017-10-02T05:16:37.563Z,7.03
2017-10-02T05:19:05.150Z,11.70
2017-10-02T05:21:32.706Z,10.57
2017-10-02T05:24:00.295Z,9.20
2017-10-02T05:26:27.896Z,8.07
2017-10-02T05:28:55.557Z,6.17
2017-10-02T05:31:23.139Z,6.43
2017-10-02T05:33:50.699Z,6.60
2017-10-02T05:36:18.283Z,6.40
2017-10-02T05:38:46.727Z,7.17
2017-10-02T05:41:15.104Z,7.90
2017-10-02T05:43:43.499Z,9.30
2017-10-02T05:46:11.827Z,9.43
2017-10-02T05:48:39.427Z,7.50
2017-10-02T05:51:06.999Z,7.03
2017-10-02T05:53:35.375Z,8.50
2017-10-02T05:56:03.723Z,9.40
2017-10-02T05:58:31.335Z,14.83
2017-10-02T06:00:58.891Z,7.77
2017-10-02T06:03:26.462Z,8.93
2017-10-02T06:05:54.047Z,7.80
2017-10-02T06:08:21.602Z,8.30
2017-10-02T06:10:49.192Z,7.07
2017-10-02T06:13:16.764Z,6.37
2017-10-02T06:15:45.142Z,7.03
2017-10-02T06:18:13.472Z,7.00
2017-10-02T06:20:41.063Z,6.87
2017-10-02T06:23:08.627Z,7.47
2017-10-02T06:25:36.182Z,7.63
2017-10-02T06:28:03.779Z,7.30
2017-10-02T06:30:31.340Z,6.77
2017-10-02T06:32:58.952Z,6.30
2017-10-02T06:35:27.327Z,5.87
2017-10-02T06:37:54.899Z,6.00
2017-10-02T06:40:22.483Z,7.10
2017-10-02T06:42:50.055Z,7.37
2017-10-02T06:45:17.752Z,6.63
2017-10-02T06:47:45.306Z,5.37
2017-10-02T06:50:12.899Z,5.87
2017-10-02T06:52:41.251Z,5.90
2017-10-02T06:55:08.819Z,5.63
2017-10-02T06:57:36.403Z,5.53
2017-10-02T07:00:04.832Z,5.37
2017-10-02T07:02:32.543Z,5.20
2017-10-02T07:05:00.898Z,5.87
2017-10-02T07:07:28.487Z,5.30
2017-10-02T07:09:56.050Z,4.83
2017-10-02T07:12:23.650Z,4.83
2017-10-02T07:14:51.227Z,5.10
2017-10-02T07:17:18.819Z,4.83
2017-10-02T07:19:47.174Z,5.30
2017-10-02T07:22:14.774Z,6.27
2017-10-02T07:24:42.361Z,5.07
2017-10-02T07:27:09.943Z,5.47
2017-10-02T07:29:37.547Z,5.83
2017-10-02T07:32:05.107Z,4.83
2017-10-02T07:34:32.709Z,5.30
2017-10-02T07:37:00.316Z,4.80
2017-10-02T07:39:28.039Z,5.03
2017-10-02T07:41:55.600Z,5.17
2017-10-02T07:44:23.266Z,4.97
2017-10-02T07:46:50.926Z,4.80
2017-10-02T07:49:18.500Z,5.30
2017-10-02T07:51:46.869Z,4.70
2017-10-02T07:54:14.415Z,5.40
2017-10-02T07:56:42.806Z,5.90
2017-10-02T07:59:11.150Z,5.47
2017-10-02T08:01:38.723Z,5.60
2017-10-02T08:04:06.299Z,5.80
2017-10-02T08:06:34.691Z,5.50
2017-10-02T08:09:03.039Z,6.00
2017-10-02T08:11:31.370Z,6.27
2017-10-02T08:13:58.951Z,4.53
2017-10-02T08:16:26.523Z,4.53
2017-10-02T08:18:54.114Z,2.87
2017-10-02T08:21:22.469Z,2.53
2017-10-02T08:23:50.135Z,3.80
2017-10-02T08:26:17.727Z,4.50
2017-10-02T08:28:45.369Z,4.50
2017-10-02T08:31:13.884Z,3.93
2017-10-02T08:33:41.436Z,3.90
2017-10-02T08:36:09.031Z,3.47
2017-10-02T08:38:36.615Z,2.60
2017-10-02T08:41:04.184Z,2.47
2017-10-02T08:43:32.547Z,2.33
2017-10-02T08:46:00.134Z,2.20
2017-10-02T08:48:27.742Z,2.23
2017-10-02T08:50:55.306Z,1.60
2017-10-02T08:53:22.881Z,2.30
2017-10-02T08:55:50.442Z,2.23
2017-10-02T08:58:18.032Z,2.10
2017-10-02T09:00:45.608Z,1.63
2017-10-02T09:03:13.159Z,1.87
2017-10-02T09:05:40.816Z,2.30
2017-10-02T09:08:08.375Z,1.93
2017-10-02T09:10:36.040Z,2.23
2017-10-02T09:13:03.583Z,2.10
2017-10-02T09:15:31.149Z,3.27
2017-10-02T09:17:58.739Z,2.77
2017-10-02T09:20:26.308Z,1.83
2017-10-02T09:22:53.906Z,1.50
2017-10-02T09:25:22.235Z,1.23
2017-10-02T09:27:49.964Z,1.40
2017-10-02T09:30:17.568Z,1.10
2017-10-02T09:32:45.131Z,1.77
2017-10-02T09:35:13.519Z,1.50
2017-10-02T09:37:41.128Z,1.53
2017-10-02T09:40:08.695Z,0.90
2017-10-02T09:42:36.287Z,2.00
2017-10-02T09:45:04.635Z,1.60
2017-10-02T09:47:32.200Z,1.40
2017-10-02T09:49:59.800Z,1.67
2017-10-02T09:52:28.103Z,1.37
2017-10-02T09:54:55.695Z,1.50
2017-10-02T09:57:23.273Z,1.60
2017-10-02T09:59:50.873Z,2.00
2017-10-02T10:02:18.427Z,1.33
2017-10-02T10:04:46.027Z,1.70
2017-10-02T10:07:13.596Z,0.90
2017-10-02T10:09:41.170Z,1.90
2017-10-02T10:12:08.759Z,1.67
2017-10-02T10:14:37.091Z,1.87
2017-10-02T10:17:04.692Z,1.50
2017-10-02T10:19:33.056Z,1.37
2017-10-02T10:22:01.431Z,1.60
2017-10-02T10:24:29.762Z,1.57
2017-10-02T10:26:57.339Z,1.60
2017-10-02T10:29:24.944Z,1.83
2017-10-02T10:31:52.518Z,1.83
2017-10-02T10:34:20.091Z,1.80
2017-10-02T10:36:47.673Z,1.67
2017-10-02T10:39:15.274Z,1.63
2017-10-02T10:41:43.625Z,1.87
2017-10-02T10:44:11.235Z,1.63
2017-10-02T10:46:38.955Z,1.30
2017-10-02T10:49:06.519Z,1.67
2017-10-02T10:51:34.863Z,1.73
2017-10-02T10:54:02.463Z,2.23
2017-10-02T10:56:30.795Z,1.43
2017-10-02T10:58:58.394Z,1.50
2017-10-02T11:01:26.730Z,1.60
2017-10-02T11:03:54.339Z,1.90
2017-10-02T11:06:22.051Z,1.80
2017-10-02T11:08:49.626Z,1.80
2017-10-02T11:11:17.228Z,1.50
2017-10-02T11:13:44.787Z,1.23
2017-10-02T11:16:12.379Z,1.57
2017-10-02T11:18:40.221Z,1.90
2017-10-02T11:21:07.931Z,0.80
2017-10-02T11:23:35.538Z,1.13
2017-10-02T11:26:03.170Z,1.27
2017-10-02T11:28:31.647Z,1.37
2017-10-02T11:31:00.033Z,1.30
2017-10-02T11:33:28.396Z,1.40
2017-10-02T11:35:56.718Z,1.50
2017-10-02T11:38:24.323Z,1.50
2017-10-02T11:40:51.927Z,1.47
2017-10-02T11:43:19.492Z,1.20
2017-10-02T11:45:47.088Z,0.90
2017-10-02T11:48:15.407Z,1.87
2017-10-02T11:50:43.108Z,2.00
2017-10-02T11:53:10.703Z,1.20
2017-10-02T11:55:38.335Z,1.03
2017-10-02T11:58:05.914Z,0.80
2017-10-02T12:00:33.517Z,1.23
2017-10-02T12:03:01.111Z,1.63
2017-10-02T12:05:28.736Z,1.70
2017-10-02T12:07:56.575Z,2.13
2017-10-02T12:10:24.931Z,2.50
2017-10-02T12:12:52.639Z,1.47
2017-10-02T12:15:20.272Z,1.50
2017-10-02T12:17:48.736Z,1.63
2017-10-02T12:20:16.302Z,1.70
2017-10-02T12:22:44.747Z,1.50
2017-10-02T12:25:12.300Z,1.50
2017-10-02T12:27:39.886Z,1.77
2017-10-02T12:30:07.459Z,1.40
2017-10-02T12:32:35.810Z,1.33
2017-10-02T12:35:03.367Z,1.60
2017-10-02T12:37:31.761Z,1.60
2017-10-02T12:39:59.327Z,1.50
2017-10-02T12:42:27.655Z,1.30
2017-10-02T12:44:55.271Z,1.60
2017-10-02T12:47:23.615Z,2.13
2017-10-02T12:49:51.229Z,1.70
2017-10-02T12:52:18.799Z,1.80
2017-10-02T12:54:46.384Z,1.80
2017-10-02T12:57:13.950Z,1.03
2017-10-02T12:59:41.540Z,1.40
2017-10-02T13:02:09.902Z,1.17
2017-10-02T13:04:37.459Z,1.47
2017-10-02T13:07:05.059Z,1.70
2017-10-02T13:09:32.639Z,1.47
2017-10-02T13:12:00.227Z,1.60
2017-10-02T13:14:27.820Z,1.00
2017-10-02T13:16:56.179Z,1.50
2017-10-02T13:19:24.629Z,1.10
2017-10-02T13:21:52.194Z,0.93
2017-10-02T13:24:19.781Z,1.10
2017-10-02T13:26:48.197Z,0.70
2017-10-02T13:29:15.752Z,0.97
2017-10-02T13:31:43.370Z,0.60
2017-10-02T13:34:11.692Z,0.60
2017-10-02T13:36:39.332Z,0.90
2017-10-02T13:39:06.923Z,0.90
2017-10-02T13:41:34.512Z,1.20
2017-10-02T13:44:02.110Z,1.30
2017-10-02T13:46:29.760Z,0.90
2017-10-02T13:48:58.120Z,1.23
2017-10-02T13:51:26.450Z,1.07
2017-10-02T13:53:54.012Z,0.97
2017-10-02T13:56:21.603Z,0.87
2017-10-02T13:58:49.169Z,1.03
2017-10-02T14:01:17.535Z,1.27
2017-10-02T14:03:45.103Z,1.10
2017-10-02T14:06:12.727Z,1.07
2017-10-02T14:08:40.284Z,1.10
2017-10-02T14:11:07.849Z,0.87
2017-10-02T14:13:35.456Z,0.90
2017-10-02T14:16:03.828Z,1.07
2017-10-02T14:18:32.188Z,1.20
2017-10-02T14:20:59.795Z,1.40
2017-10-02T14:23:27.380Z,1.20
2017-10-02T14:25:54.971Z,1.50
2017-10-02T14:28:23.315Z,2.23
2017-10-02T14:30:50.905Z,1.30
2017-10-02T14:33:18.505Z,1.10
2017-10-02T14:35:46.163Z,1.27
2017-10-02T14:38:13.748Z,1.67
2017-10-02T14:40:41.313Z,1.33
2017-10-02T14:43:08.912Z,1.60
2017-10-02T14:45:37.261Z,1.10
2017-10-02T14:48:04.856Z,0.90
2017-10-02T14:50:33.187Z,1.10
2017-10-02T14:53:00.845Z,0.70
2017-10-02T14:55:28.416Z,1.00
2017-10-02T14:57:56.024Z,0.80
2017-10-02T15:00:23.747Z,0.80
2017-10-02T15:02:51.313Z,1.20
2017-10-02T15:05:19.707Z,1.10
2017-10-02T15:07:47.311Z,0.80
2017-10-02T15:10:14.865Z,0.77
2017-10-02T15:12:42.473Z,0.50
2017-10-02T15:15:10.851Z,0.90
2017-10-02T15:17:39.211Z,0.70
2017-10-02T15:20:06.839Z,0.70
2017-10-02T15:22:34.556Z,0.80
2017-10-02T15:25:02.911Z,0.63
2017-10-02T15:27:30.542Z,0.70
2017-10-02T15:29:58.124Z,0.70
2017-10-02T15:32:25.751Z,0.80
2017-10-02T15:34:53.315Z,0.73
2017-10-02T15:37:20.906Z,1.10
2017-10-02T15:39:48.484Z,0.70
2017-10-02T15:42:17.047Z,0.70
2017-10-02T15:44:44.627Z,0.53
2017-10-02T15:47:12.962Z,0.77
2017-10-02T15:49:40.566Z,0.73
2017-10-02T15:52:08.123Z,0.80
2017-10-02T15:54:35.706Z,0.80
2017-10-02T15:57:03.328Z,0.70
2017-10-02T15:59:31.696Z,0.70
2017-10-02T16:01:59.347Z,0.90
2017-10-02T16:04:26.925Z,0.73
2017-10-02T16:06:55.291Z,0.93
2017-10-02T16:09:22.866Z,1.10
2017-10-02T16:11:51.231Z,0.90
2017-10-02T16:14:19.591Z,8.40
2017-10-02T16:16:47.275Z,1.50
2017-10-02T16:19:15.608Z,1.20
2017-10-02T16:21:43.240Z,1.60
2017-10-02T16:24:10.883Z,0.80
2017-10-02T16:26:38.456Z,1.20
2017-10-02T16:29:06.059Z,0.80
2017-10-02T16:31:33.631Z,1.97
2017-10-02T16:34:01.231Z,1.20
2017-10-02T16:36:28.796Z,1.20
2017-10-02T16:38:56.392Z,1.37
2017-10-02T16:41:23.955Z,1.47
2017-10-02T16:43:51.593Z,1.43
2017-10-02T16:46:19.174Z,1.20
2017-10-02T16:48:46.843Z,1.07
2017-10-02T16:51:14.432Z,1.17
2017-10-02T16:53:42.783Z,1.20
2017-10-02T16:56:10.376Z,1.10
2017-10-02T16:58:37.958Z,1.20
2017-10-02T17:01:05.543Z,1.40
2017-10-02T17:03:33.179Z,1.00
2017-10-02T17:06:00.775Z,1.50
2017-10-02T17:08:28.432Z,1.40
2017-10-02T17:10:56.007Z,1.07
2017-10-02T17:13:24.382Z,1.27
2017-10-02T17:15:52.740Z,1.23
2017-10-02T17:18:21.844Z,1.40
2017-10-02T17:20:49.411Z,1.27
2017-10-02T17:23:17.782Z,1.50
2017-10-02T17:25:46.221Z,1.80
2017-10-02T17:28:13.868Z,1.00
2017-10-02T17:30:41.507Z,1.40
2017-10-02T17:33:09.211Z,1.60
2017-10-02T17:35:36.811Z,1.27
2017-10-02T17:38:04.387Z,1.07
2017-10-02T17:40:32.036Z,1.50
2017-10-02T17:43:00.377Z,1.07
2017-10-02T17:45:28.080Z,1.10
2017-10-02T17:47:56.477Z,1.30
2017-10-02T17:50:24.105Z,1.03
2017-10-02T17:52:52.439Z,0.90
2017-10-02T17:55:20.030Z,1.50
2017-10-02T17:57:47.628Z,1.70
2017-10-02T18:00:15.229Z,1.57
2017-10-02T18:02:42.838Z,1.33
2017-10-02T18:05:10.414Z,1.07
2017-10-02T18:07:38.059Z,1.27
2017-10-02T18:10:05.664Z,1.70
2017-10-02T18:12:33.299Z,1.40
2017-10-02T18:15:00.964Z,1.20
2017-10-02T18:17:29.493Z,1.63
2017-10-02T18:19:57.869Z,1.13
2017-10-02T18:22:26.227Z,1.10
2017-10-02T18:24:55.323Z,1.10
2017-10-02T18:27:22.922Z,1.57
2017-10-02T18:29:50.527Z,0.97
2017-10-02T18:32:18.123Z,1.20
2017-10-02T18:34:46.448Z,1.00
2017-10-02T18:37:14.053Z,1.07
2017-10-02T18:39:42.420Z,1.30
2017-10-02T18:42:10.752Z,1.40
2017-10-02T18:44:38.319Z,1.90
2017-10-02T18:47:05.913Z,1.30
2017-10-02T18:49:33.505Z,1.53
2017-10-02T18:52:01.094Z,1.53
2017-10-02T18:54:28.656Z,1.10
2017-10-02T18:56:56.244Z,1.20
2017-10-02T18:59:25.332Z,1.33
2017-10-02T19:01:53.867Z,1.37
2017-10-02T19:04:21.440Z,1.23
2017-10-02T19:06:49.023Z,0.90
2017-10-02T19:09:16.608Z,1.10
2017-10-02T19:11:44.955Z,1.20
2017-10-02T19:14:12.687Z,1.50
2017-10-02T19:16:40.259Z,1.17
2017-10-02T19:19:07.869Z,1.33
2017-10-02T19:21:36.196Z,1.33
2017-10-02T19:24:03.782Z,1.70
2017-10-02T19:26:31.440Z,1.03
2017-10-02T19:28:59.007Z,1.43
2017-10-02T19:31:26.612Z,1.60
2017-10-02T19:33:54.200Z,1.40
2017-10-02T19:36:22.038Z,1.50
2017-10-02T19:38:49.614Z,1.57
2017-10-02T19:41:17.181Z,1.37
2017-10-02T19:43:44.779Z,1.83
2017-10-02T19:46:13.127Z,1.63
2017-10-02T19:48:40.719Z,1.43
2017-10-02T19:51:09.071Z,1.70
2017-10-02T19:53:36.675Z,1.73
2017-10-02T19:56:04.260Z,1.20
2017-10-02T19:58:31.890Z,1.00
2017-10-02T20:00:59.478Z,1.20
2017-10-02T20:03:27.047Z,1.00
2017-10-02T20:05:54.658Z,1.00
2017-10-02T20:08:22.267Z,1.60
2017-10-02T20:10:49.835Z,1.13
2017-10-02T20:13:17.403Z,1.00
2017-10-02T20:15:45.003Z,1.00
2017-10-02T20:18:12.577Z,1.20
2017-10-02T20:20:40.171Z,1.20
2017-10-02T20:23:09.247Z,1.20
2017-10-02T20:25:36.807Z,1.30
2017-10-02T20:28:04.448Z,1.00
2017-10-02T20:30:32.023Z,1.10
2017-10-02T20:32:59.634Z,1.40
2017-10-02T20:35:27.235Z,0.93
2017-10-02T20:37:54.876Z,0.80
2017-10-02T20:40:22.439Z,0.97
2017-10-02T20:42:50.039Z,1.17
2017-10-02T20:45:18.438Z,0.90
2017-10-02T20:47:46.812Z,1.17
2017-10-02T20:50:15.162Z,1.10
2017-10-02T20:52:42.740Z,1.20
2017-10-02T20:55:10.348Z,1.93
2017-10-02T20:57:37.924Z,5.03
2017-10-02T21:00:05.676Z,4.17
2017-10-02T21:02:33.247Z,4.10
2017-10-02T21:05:00.948Z,2.50
2017-10-02T21:07:29.280Z,4.90
2017-10-02T21:09:56.880Z,9.80
2017-10-02T21:12:24.489Z,2.90
2017-10-02T21:14:52.048Z,1.90
2017-10-02T21:17:19.652Z,1.90
2017-10-02T21:19:47.304Z,1.17
2017-10-02T21:22:14.964Z,1.10
2017-10-02T21:24:43.420Z,1.07
2017-10-02T21:27:11.014Z,1.20
2017-10-02T21:29:38.703Z,1.00
2017-10-02T21:32:06.276Z,1.40
2017-10-02T21:34:33.874Z,1.40
2017-10-02T21:37:03.064Z,1.47
2017-10-02T21:39:30.663Z,1.37
2017-10-02T21:41:58.998Z,1.10
2017-10-02T21:44:26.608Z,0.90
2017-10-02T21:46:54.176Z,1.10
2017-10-02T21:49:21.760Z,1.33
2017-10-02T21:51:49.331Z,1.20
2017-10-02T21:54:16.976Z,1.10
2017-10-02T21:56:44.582Z,1.10
2017-10-02T21:59:12.919Z,1.57
2017-10-02T22:01:40.519Z,1.40
2017-10-02T22:04:08.959Z,1.20
2017-10-02T22:06:36.531Z,1.70
2017-10-02T22:09:04.096Z,1.33
2017-10-02T22:11:31.745Z,1.97
2017-10-02T22:13:59.312Z,1.03
2017-10-02T22:16:26.888Z,1.50
2017-10-02T22:18:55.283Z,1.60
2017-10-02T22:21:23.688Z,1.13
2017-10-02T22:23:51.451Z,1.33
2017-10-02T22:26:19.063Z,1.33
2017-10-02T22:28:46.632Z,1.70
2017-10-02T22:31:14.966Z,1.47
2017-10-02T22:33:42.576Z,1.87
2017-10-02T22:36:10.920Z,1.40
2017-10-02T22:38:38.519Z,1.20
2017-10-02T22:41:06.100Z,1.20
2017-10-02T22:43:33.695Z,1.33
2017-10-02T22:46:01.261Z,1.30
2017-10-02T22:48:29.639Z,1.60
2017-10-02T22:50:57.202Z,1.53
2017-10-02T22:53:24.766Z,1.33
2017-10-02T22:55:53.120Z,1.50
2017-10-02T22:58:20.699Z,1.80
2017-10-02T23:00:49.118Z,1.33
2017-10-02T23:03:16.696Z,1.70
2017-10-02T23:05:44.248Z,1.40
2017-10-02T23:08:11.848Z,1.67
2017-10-02T23:10:39.442Z,1.40
2017-10-02T23:13:07.000Z,1.60
2017-10-02T23:15:34.589Z,1.30
2017-10-02T23:18:02.154Z,1.30
2017-10-02T23:20:29.751Z,1.10
2017-10-02T23:22:58.089Z,1.30
2017-10-02T23:25:25.767Z,1.50
2017-10-02T23:27:53.343Z,2.03
2017-10-02T23:30:20.924Z,1.27
2017-10-02T23:32:48.713Z,1.83
2017-10-02T23:35:16.306Z,1.83
2017-10-02T23:37:44.667Z,1.50
2017-10-02T23:40:12.264Z,1.70
2017-10-02T23:42:40.627Z,1.50
2017-10-02T23:45:08.178Z,1.43
2017-10-02T23:47:35.763Z,1.60
2017-10-02T23:50:04.087Z,1.47
2017-10-02T23:52:31.690Z,2.07
2017-10-02T23:55:00.024Z,1.80
2017-10-02T23:57:27.582Z,1.70
2017-10-02T23:59:55.163Z,1.70
